Aeroporto :
LOGIN :

Iscrizione | Disclaimer

   EN    FR    IT 

 










Sommario :    VFR   VFR Marginale   IFR   IFR Intensivo   IFR Molto Intensivo
Visibilità : 
Base nubi : 
>= 8 km
>= 3000ft
5 / 8 km
1000 / 3000 ft
1500m / 5 km
500 / 1000 ft
800 / 1500m
200 / 500 ft
< 800m
< 200 ft
Simboli :   Temporali  Nebbia  Neve Forte  Precipitazioni Forti  Vento > 20 kt
SIGMETs :   Varie  Temporali  Ghiacco  Turbolenza  Onda orograficha  Ceneri Vulcaniche






- Altitudine del aeroporto : 1188 ft


LKLN - Plzen Line

ULTIMO METAR :
  • 110630Z AUTO 36003KT 290V070 9999 -RA FEW021 BKN036 OVC043 13/11 Q1021

METARs OBSOLETI :
  • 110600Z AUTO 03003KT 320V090 9999 -RA BKN034 OVC043 13/11 Q1020
  • 110530Z AUTO VRB02KT 9999 -RA FEW043 SCT075 OVC087 13/11 Q1020
  • 110500Z AUTO VRB02KT 9999 -RA OVC079 13/11 Q1020
  • 110430Z AUTO VRB02KT 9999 -RA FEW074 OVC094 13/11 Q1019
  • 110400Z AUTO VRB02KT 9999 -RA FEW044 OVC071 14/11 Q1019

TAF N/A



MetMap, La meteo Aeronautica in un colpo d'occhio ! - Copyright ORBIFLY Dicembre 2007 - Disclaimer

ORBIFLY MET'MAP TEAM :

Programmazione e sviluppo : Alexandra Zaïnal
Concezione : Baudouin d'Aumeries
Aiuto per la programmazione : Marc-Olivier Méhu
Supporto tecnico e logistico : Manuel Goepfert
Aiuto per la traduzione : Arnaldo La Scala

Contatto : metmap@orbifly.com




FONTI E CREDITI :

   NOAA